Time;durP1;ratioP1;P1;durP2;ratioP2;P2;SDS_P1;SDS_P2;PMS_P1;PMS_P2;Temp;Humidity;BMP_temperature;BMP_pressure;BME280_temperature;BME280_humidity;BME280_pressure;Samples;Min_cycle;Max_cycle;Signal;HPM_P1;HPM_P2
2022/12/18 00:01:18;;;;;;;47.85;35.85;;;-6.50;99.90;;;;;;6153372;23;20490;-74
2022/12/18 00:03:44;;;;;;;46.42;35.03;;;-6.60;99.90;;;;;;6153033;23;20166;-74
2022/12/18 00:06:11;;;;;;;87.00;42.70;;;-6.60;99.90;;;;;;6153335;23;20182;-75
2022/12/18 00:08:38;;;;;;;54.38;34.47;;;-6.70;99.90;;;;;;6152857;23;20632;-74
2022/12/18 00:11:06;;;;;;;62.30;40.05;;;-6.70;99.90;;;;;;6152815;23;20678;-74
2022/12/18 00:13:33;;;;;;;64.68;38.70;;;-6.70;99.90;;;;;;6152570;23;20250;-74
2022/12/18 00:16:03;;;;;;;51.97;31.23;;;-6.60;99.90;;;;;;6153245;23;20554;-80
2022/12/18 00:18:35;;;;;;;55.55;36.88;;;-6.50;99.90;;;;;;6153779;23;20159;-73
2022/12/18 00:21:04;;;;;;;57.03;32.38;;;-6.40;99.90;;;;;;6149409;23;20238;-74
2022/12/18 00:23:31;;;;;;;54.03;34.60;;;-6.50;99.90;;;;;;6152837;23;20176;-74
2022/12/18 00:26:00;;;;;;;62.83;34.15;;;-6.50;99.90;;;;;;6152523;23;20492;-73
2022/12/18 00:28:27;;;;;;;67.13;39.42;;;-6.50;99.90;;;;;;6153129;23;20175;-73
2022/12/18 00:31:01;;;;;;;41.35;30.15;;;-6.50;99.90;;;;;;6152988;23;20179;-75
2022/12/18 00:33:28;;;;;;;78.15;43.42;;;-6.50;99.90;;;;;;6152559;23;20166;-73
2022/12/18 00:36:01;;;;;;;71.80;39.72;;;-6.50;99.90;;;;;;6152633;23;20199;-73
2022/12/18 00:38:27;;;;;;;64.25;42.28;;;-6.50;99.90;;;;;;6152770;23;20166;-73
2022/12/18 00:40:54;;;;;;;30.30;25.05;;;-6.40;99.90;;;;;;6152647;23;20176;-74
2022/12/18 00:43:20;;;;;;;60.70;40.20;;;-6.30;99.90;;;;;;6152098;23;20511;-74
2022/12/18 00:45:47;;;;;;;38.80;30.60;;;-6.40;99.90;;;;;;6152270;23;20176;-75
2022/12/18 00:48:13;;;;;;;47.53;33.45;;;-6.40;99.90;;;;;;6152198;23;20188;-73
2022/12/18 00:50:40;;;;;;;48.28;33.00;;;-6.40;99.90;;;;;;6152390;23;20647;-73
2022/12/18 00:53:11;;;;;;;71.93;44.55;;;-6.40;99.90;;;;;;6152382;23;20183;-73
2022/12/18 00:55:38;;;;;;;71.57;40.72;;;-6.30;99.90;;;;;;6152369;23;20179;-74
2022/12/18 00:58:05;;;;;;;71.20;37.35;;;-6.30;99.90;;;;;;6152272;23;20175;-73
2022/12/18 01:00:32;;;;;;;34.15;30.52;;;-6.20;99.90;;;;;;6152065;23;20183;-73
2022/12/18 01:02:58;;;;;;;51.83;32.70;;;-6.30;99.90;;;;;;6152121;23;20190;-73
2022/12/18 01:05:26;;;;;;;64.95;37.25;;;-6.30;99.90;;;;;;6152515;23;20198;-73
2022/12/18 01:07:52;;;;;;;69.45;39.35;;;-6.30;99.90;;;;;;6152264;23;20175;-75
2022/12/18 01:10:21;;;;;;;56.20;36.20;;;-6.30;99.90;;;;;;6151929;23;20175;-75
2022/12/18 01:12:48;;;;;;;64.82;37.33;;;-6.30;99.90;;;;;;6151406;23;20207;-75
2022/12/18 01:15:15;;;;;;;46.95;30.67;;;-6.30;99.90;;;;;;6151739;23;20186;-73
2022/12/18 01:17:42;;;;;;;29.88;27.10;;;-6.40;99.90;;;;;;6152261;23;20179;-73
2022/12/18 01:20:10;;;;;;;54.78;35.67;;;-6.50;99.90;;;;;;6152248;23;20183;-74
2022/12/18 01:22:37;;;;;;;61.00;34.17;;;-6.50;99.90;;;;;;6152007;23;20179;-74
2022/12/18 01:25:05;;;;;;;55.00;33.08;;;-6.50;99.90;;;;;;6151934;23;20179;-75
2022/12/18 01:27:34;;;;;;;59.22;35.90;;;-6.50;99.90;;;;;;6151828;23;20245;-73
2022/12/18 01:30:01;;;;;;;46.97;29.60;;;-6.50;99.90;;;;;;6151849;23;20186;-75
2022/12/18 01:32:30;;;;;;;59.22;32.95;;;-6.60;99.90;;;;;;6151966;23;20175;-73
2022/12/18 01:34:57;;;;;;;29.73;25.48;;;-6.60;99.90;;;;;;6152079;23;20179;-73
2022/12/18 01:37:24;;;;;;;57.00;35.70;;;-6.70;99.90;;;;;;6152287;23;20214;-73
2022/12/18 01:39:52;;;;;;;38.40;32.78;;;-6.70;99.90;;;;;;6151545;23;20206;-72
2022/12/18 01:42:19;;;;;;;53.45;27.73;;;-6.70;99.90;;;;;;6151665;23;20484;-75
2022/12/18 01:45:01;;;;;;;45.15;28.85;;;-6.70;99.90;;;;;;6151602;23;20179;-73
2022/12/18 01:47:35;;;;;;;47.80;27.90;;;-6.70;99.90;;;;;;6151728;23;20163;-73
2022/12/18 01:50:05;;;;;;;35.78;31.08;;;-6.70;99.90;;;;;;6151614;23;20467;-75
2022/12/18 01:52:33;;;;;;;37.45;29.25;;;-6.70;99.90;;;;;;6159785;23;20183;-73
2022/12/18 01:55:01;;;;;;;50.65;34.25;;;-6.60;99.90;;;;;;6157598;23;20496;-73
2022/12/18 01:57:28;;;;;;;37.80;29.98;;;-6.60;99.90;;;;;;6153294;23;20570;-73
2022/12/18 02:00:00;;;;;;;31.17;26.58;;;-6.60;99.90;;;;;;6152599;23;20185;-73
2022/12/18 02:02:28;;;;;;;43.17;24.23;;;-6.60;99.90;;;;;;6152182;23;20189;-74
2022/12/18 02:04:55;;;;;;;58.85;32.20;;;-6.60;99.90;;;;;;6151559;23;20190;-74
2022/12/18 02:07:29;;;;;;;45.30;30.23;;;-6.60;99.90;;;;;;6151949;23;20177;-73
2022/12/18 02:10:02;;;;;;;34.50;30.90;;;-6.60;99.90;;;;;;6151824;23;20174;-75
2022/12/18 02:12:34;;;;;;;32.17;25.25;;;-6.60;99.90;;;;;;6151428;23;20544;-74
2022/12/18 02:15:10;;;;;;;32.63;26.60;;;-6.70;99.90;;;;;;6151458;23;20500;-74
2022/12/18 02:17:41;;;;;;;34.85;25.42;;;-6.70;99.90;;;;;;6151381;23;20182;-75
2022/12/18 02:20:15;;;;;;;49.25;29.58;;;-6.70;99.90;;;;;;6151990;23;20174;-74
2022/12/18 02:22:50;;;;;;;59.08;35.03;;;-6.70;99.90;;;;;;6151924;23;20214;-73
2022/12/18 02:25:30;;;;;;;28.60;25.15;;;-6.60;99.90;;;;;;6151380;23;20160;-73
2022/12/18 02:28:01;;;;;;;44.75;33.58;;;-6.70;99.90;;;;;;6151686;23;20159;-73
2022/12/18 02:30:32;;;;;;;43.85;32.35;;;-6.60;99.90;;;;;;6151585;23;20186;-73
2022/12/18 02:33:01;;;;;;;60.83;33.50;;;-6.70;99.90;;;;;;6151068;23;20164;-73
2022/12/18 02:35:31;;;;;;;51.60;28.15;;;-6.70;99.90;;;;;;6151267;23;20176;-73
2022/12/18 02:37:59;;;;;;;47.95;32.08;;;-6.60;99.90;;;;;;6151463;23;20199;-73
2022/12/18 02:40:28;;;;;;;62.92;38.08;;;-6.60;99.90;;;;;;6151218;23;20190;-73
2022/12/18 02:42:55;;;;;;;65.57;33.58;;;-6.60;99.90;;;;;;6151609;23;20484;-73
2022/12/18 02:45:23;;;;;;;63.35;38.65;;;-6.60;99.90;;;;;;6151639;23;20182;-73
2022/12/18 02:47:51;;;;;;;47.60;31.60;;;-6.60;99.90;;;;;;6150783;23;20175;-73
2022/12/18 02:50:23;;;;;;;51.97;36.22;;;-6.60;99.90;;;;;;6151281;23;20509;-72
2022/12/18 02:53:02;;;;;;;31.75;24.50;;;-6.60;99.90;;;;;;6151227;23;20222;-73
2022/12/18 02:55:36;;;;;;;33.45;27.73;;;-6.60;99.90;;;;;;6150960;23;20166;-74
2022/12/18 02:58:12;;;;;;;46.35;27.52;;;-6.60;99.90;;;;;;6151228;23;20178;-73
2022/12/18 03:00:43;;;;;;;45.55;30.80;;;-6.70;99.90;;;;;;6151472;23;20170;-74
2022/12/18 03:03:17;;;;;;;45.38;30.92;;;-6.70;99.90;;;;;;6152042;23;20494;-73
2022/12/18 03:05:49;;;;;;;35.45;27.52;;;-6.70;99.90;;;;;;6152717;23;20182;-74
2022/12/18 03:08:19;;;;;;;29.27;23.20;;;-6.70;99.90;;;;;;6153744;23;20159;-73
2022/12/18 03:10:51;;;;;;;24.70;21.90;;;-6.70;99.90;;;;;;6153714;23;20198;-73
2022/12/18 03:13:25;;;;;;;41.03;31.08;;;-6.70;99.90;;;;;;6153239;23;20203;-74
2022/12/18 03:15:57;;;;;;;38.10;26.88;;;-6.70;99.90;;;;;;6153396;23;20166;-74
2022/12/18 03:21:03;;;;;;;34.38;27.90;;;-6.70;99.90;;;;;;6123504;23;20312;-74
2022/12/18 03:23:35;;;;;;;30.67;26.80;;;-6.80;99.90;;;;;;6213309;23;20157;-74
2022/12/18 03:26:07;;;;;;;36.10;28.85;;;-6.80;99.90;;;;;;6213249;23;20154;-75
2022/12/18 03:28:38;;;;;;;35.20;25.50;;;-6.80;99.90;;;;;;6213070;23;20158;-73
2022/12/18 03:31:10;;;;;;;29.33;20.85;;;-6.80;99.90;;;;;;6210082;23;20173;-72
2022/12/18 03:33:42;;;;;;;36.25;27.60;;;-6.80;99.90;;;;;;6212639;23;20173;-73
2022/12/18 03:36:09;;;;;;;40.75;30.58;;;-6.80;99.90;;;;;;6212548;23;20688;-73
2022/12/18 03:38:36;;;;;;;28.92;23.33;;;-6.90;99.90;;;;;;6213156;23;20180;-74
2022/12/18 03:41:09;;;;;;;47.50;28.48;;;-6.90;99.90;;;;;;6213073;23;20187;-74
2022/12/18 03:43:43;;;;;;;50.30;31.73;;;-6.90;99.90;;;;;;6212579;23;20606;-73
2022/12/18 03:46:18;;;;;;;28.15;22.90;;;-6.90;99.90;;;;;;6213027;23;20161;-73
2022/12/18 03:48:48;;;;;;;40.65;28.77;;;-7.00;99.90;;;;;;6213614;23;20515;-73
2022/12/18 03:51:19;;;;;;;42.22;31.50;;;-7.00;99.90;;;;;;6213235;23;20537;-73
2022/12/18 03:53:52;;;;;;;57.58;26.25;;;-7.10;99.90;;;;;;6212856;23;20621;-73
2022/12/18 03:56:21;;;;;;;37.70;28.02;;;-7.10;99.90;;;;;;6212339;23;20664;-73
2022/12/18 03:58:49;;;;;;;32.28;25.67;;;-7.10;99.90;;;;;;6212895;23;20180;-73
2022/12/18 04:01:19;;;;;;;37.00;26.83;;;-7.20;99.90;;;;;;6213013;23;20174;-73
2022/12/18 04:03:49;;;;;;;35.97;27.08;;;-7.30;99.90;;;;;;6213056;23;20552;-73
2022/12/18 04:06:17;;;;;;;31.02;24.92;;;-7.30;99.90;;;;;;6213065;23;20177;-72
2022/12/18 04:08:44;;;;;;;28.70;25.95;;;-7.30;99.90;;;;;;6213290;23;20178;-72
2022/12/18 04:11:11;;;;;;;44.90;35.80;;;-7.30;99.90;;;;;;6213037;23;20174;-71
2022/12/18 04:13:39;;;;;;;35.05;29.85;;;-7.30;99.90;;;;;;6212504;23;20174;-71
2022/12/18 04:16:07;;;;;;;23.05;19.83;;;-7.40;99.90;;;;;;6212144;23;20174;-72
2022/12/18 04:18:35;;;;;;;33.03;28.13;;;-7.40;99.90;;;;;;6212506;23;20185;-72
2022/12/18 04:21:02;;;;;;;33.75;25.40;;;-7.40;99.90;;;;;;6212348;23;20212;-71
2022/12/18 04:23:29;;;;;;;38.08;29.77;;;-7.40;99.90;;;;;;6212387;23;20265;-73
2022/12/18 04:25:55;;;;;;;27.02;24.48;;;-7.40;99.90;;;;;;6212618;23;20177;-72
2022/12/18 04:28:22;;;;;;;49.53;29.55;;;-7.40;99.90;;;;;;6212434;23;20189;-72
2022/12/18 04:30:49;;;;;;;38.83;27.42;;;-7.40;99.90;;;;;;6211747;23;20185;-71
2022/12/18 04:33:16;;;;;;;41.55;28.23;;;-7.40;99.90;;;;;;6212953;23;20515;-73
2022/12/18 04:35:44;;;;;;;29.05;24.70;;;-7.40;99.90;;;;;;6212367;23;20177;-73
2022/12/18 04:38:11;;;;;;;34.50;26.15;;;-7.50;99.90;;;;;;6212266;23;20193;-74
2022/12/18 04:40:38;;;;;;;57.67;31.20;;;-7.50;99.90;;;;;;6212297;23;20174;-73
2022/12/18 04:43:05;;;;;;;42.30;30.42;;;-7.60;99.90;;;;;;6212238;23;20178;-72
2022/12/18 04:45:32;;;;;;;54.90;33.38;;;-7.60;99.90;;;;;;6212477;23;20177;-73
2022/12/18 04:47:59;;;;;;;29.75;26.55;;;-7.60;99.90;;;;;;6212593;23;20200;-73
2022/12/18 04:50:26;;;;;;;50.55;29.88;;;-7.60;99.90;;;;;;6212046;23;20540;-73
2022/12/18 04:52:55;;;;;;;25.95;23.33;;;-7.60;99.90;;;;;;6212150;23;20185;-73
2022/12/18 04:55:25;;;;;;;37.33;24.27;;;-7.60;99.90;;;;;;6212041;23;20177;-73
2022/12/18 04:57:52;;;;;;;27.05;23.75;;;-7.60;99.90;;;;;;6212425;23;20284;-74
2022/12/18 05:00:19;;;;;;;23.08;20.60;;;-7.60;99.90;;;;;;6212244;23;20181;-73
2022/12/18 05:02:46;;;;;;;36.33;24.92;;;-7.60;99.90;;;;;;6212074;23;20177;-73
2022/12/18 05:05:12;;;;;;;26.70;22.27;;;-7.70;99.90;;;;;;6212102;23;20189;-72
2022/12/18 05:07:39;;;;;;;34.80;25.15;;;-7.70;99.90;;;;;;6211582;23;20630;-73
2022/12/18 05:10:08;;;;;;;22.83;20.35;;;-7.80;99.90;;;;;;6212104;23;20200;-73
2022/12/18 05:12:57;;;;;;;27.02;20.17;;;-7.80;99.90;;;;;;6211780;23;20185;-74
2022/12/18 05:15:22;;;;;;;25.73;23.45;;;-7.90;99.90;;;;;;6211493;23;20209;-73
2022/12/18 05:17:49;;;;;;;42.95;27.35;;;-7.90;99.90;;;;;;6211585;23;20690;-73
2022/12/18 05:20:16;;;;;;;23.42;20.13;;;-7.90;99.90;;;;;;6212089;23;20205;-73
2022/12/18 05:22:42;;;;;;;27.45;23.13;;;-7.90;99.90;;;;;;6212012;23;20620;-73
2022/12/18 05:25:11;;;;;;;33.35;22.00;;;-8.00;99.90;;;;;;6211832;23;20174;-72
2022/12/18 05:27:37;;;;;;;22.83;20.92;;;-8.00;99.90;;;;;;6211472;23;20199;-72
2022/12/18 05:30:05;;;;;;;26.58;23.58;;;-8.10;99.90;;;;;;6211604;23;20186;-73
2022/12/18 05:32:32;;;;;;;18.08;16.42;;;-8.10;99.90;;;;;;6212351;23;20178;-73
2022/12/18 05:34:58;;;;;;;22.95;20.63;;;-8.10;99.90;;;;;;6212335;23;20181;-73
2022/12/18 05:37:25;;;;;;;32.50;19.42;;;-8.10;99.90;;;;;;6211293;23;20201;-73
2022/12/18 05:39:52;;;;;;;23.85;21.98;;;-8.10;99.90;;;;;;6211801;23;20795;-73
2022/12/18 05:42:20;;;;;;;29.73;23.75;;;-8.20;99.90;;;;;;6211879;23;20177;-73
2022/12/18 05:44:46;;;;;;;24.83;22.35;;;-8.20;99.90;;;;;;6212039;23;20174;-73
2022/12/18 05:47:13;;;;;;;23.02;20.92;;;-8.20;99.90;;;;;;6211977;23;20269;-73
2022/12/18 05:49:40;;;;;;;23.05;20.75;;;-8.20;99.90;;;;;;6211494;23;20184;-72
2022/12/18 05:52:07;;;;;;;27.08;20.67;;;-8.30;99.90;;;;;;6211622;23;20185;-73
2022/12/18 05:54:33;;;;;;;36.10;25.13;;;-8.30;99.90;;;;;;6211797;23;20237;-73
2022/12/18 05:57:00;;;;;;;33.78;24.63;;;-8.40;99.90;;;;;;6211582;23;20194;-72
2022/12/18 05:59:28;;;;;;;27.15;22.25;;;-8.40;99.90;;;;;;6211724;23;20185;-73
2022/12/18 06:01:55;;;;;;;25.83;22.55;;;-8.40;99.90;;;;;;6211054;23;20647;-72
2022/12/18 06:04:22;;;;;;;22.90;20.65;;;-8.40;99.90;;;;;;6211415;23;20174;-73
2022/12/18 06:06:48;;;;;;;25.42;22.92;;;-8.40;99.90;;;;;;6211678;23;20173;-72
2022/12/18 06:09:15;;;;;;;33.10;22.33;;;-8.40;99.90;;;;;;6211973;23;20184;-71
2022/12/18 06:11:42;;;;;;;19.65;18.10;;;-8.40;99.90;;;;;;6215478;23;20500;-72
2022/12/18 06:14:10;;;;;;;39.72;26.52;;;-8.50;99.90;;;;;;6212121;23;20412;-72
2022/12/18 06:16:38;;;;;;;31.63;24.45;;;-8.50;99.90;;;;;;6211320;23;20178;-72
2022/12/18 06:19:06;;;;;;;24.58;22.02;;;-8.30;99.90;;;;;;6211802;23;20196;-72
2022/12/18 06:21:34;;;;;;;26.13;18.85;;;-8.50;99.90;;;;;;6211122;23;20214;-72
2022/12/18 06:24:01;;;;;;;21.60;19.50;;;-8.50;99.90;;;;;;6211741;23;20174;-73
2022/12/18 06:26:28;;;;;;;22.70;20.67;;;-8.50;99.90;;;;;;6211324;23;20175;-73
2022/12/18 06:28:54;;;;;;;32.70;23.55;;;-8.50;99.90;;;;;;6211312;23;20177;-73
2022/12/18 06:31:21;;;;;;;29.80;21.05;;;-8.50;99.90;;;;;;6211332;23;20177;-73
2022/12/18 06:33:49;;;;;;;24.35;21.05;;;-8.50;99.90;;;;;;6211389;23;20493;-73
2022/12/18 06:36:16;;;;;;;33.70;23.38;;;-8.50;99.90;;;;;;6211262;23;20184;-73
2022/12/18 06:38:44;;;;;;;22.45;20.30;;;-8.60;99.90;;;;;;6211333;23;20198;-73
2022/12/18 06:41:13;;;;;;;22.70;20.55;;;-8.60;99.90;;;;;;6211300;23;20176;-74
2022/12/18 06:43:40;;;;;;;19.75;17.88;;;-8.60;99.90;;;;;;6211246;23;20177;-73
2022/12/18 06:46:07;;;;;;;18.77;16.90;;;-8.60;99.90;;;;;;6211149;23;20257;-74
2022/12/18 06:48:34;;;;;;;21.55;19.45;;;-8.70;99.90;;;;;;6211197;23;20173;-73
2022/12/18 06:51:02;;;;;;;31.67;24.05;;;-8.70;99.90;;;;;;6211877;23;20177;-73
2022/12/18 06:53:29;;;;;;;27.50;21.67;;;-8.70;99.90;;;;;;6211814;23;20173;-73
2022/12/18 06:56:01;;;;;;;25.85;18.30;;;-8.70;99.90;;;;;;6211069;23;20226;-75
2022/12/18 06:58:28;;;;;;;27.00;19.38;;;-8.70;99.90;;;;;;6210994;23;20200;-72
2022/12/18 07:01:00;;;;;;;24.88;22.38;;;-8.80;99.90;;;;;;6211292;23;20188;-76
2022/12/18 07:03:27;;;;;;;32.47;26.50;;;-8.90;99.90;;;;;;6211292;23;20596;-73
2022/12/18 07:05:54;;;;;;;23.30;21.10;;;-8.80;99.90;;;;;;6211080;23;20464;-72
2022/12/18 07:08:22;;;;;;;20.15;18.40;;;-8.90;99.90;;;;;;6210761;23;20181;-73
2022/12/18 07:10:49;;;;;;;23.08;20.80;;;-8.80;99.90;;;;;;6211083;23;20179;-73
2022/12/18 07:13:17;;;;;;;20.60;18.92;;;-8.90;99.90;;;;;;6211346;23;20173;-72
2022/12/18 07:15:44;;;;;;;25.98;18.13;;;-8.90;99.90;;;;;;6211374;23;20191;-72
2022/12/18 07:18:10;;;;;;;24.63;18.55;;;-8.90;99.90;;;;;;6210670;23;20520;-73
2022/12/18 07:20:37;;;;;;;18.30;16.60;;;-8.80;99.90;;;;;;6209680;23;20231;-71
2022/12/18 07:23:04;;;;;;;24.60;21.13;;;-8.80;99.90;;;;;;6209402;23;20162;-73
2022/12/18 07:25:34;;;;;;;27.13;21.50;;;-8.80;99.90;;;;;;6210056;23;20261;-72
2022/12/18 07:28:01;;;;;;;23.83;18.70;;;-8.70;99.90;;;;;;6209483;23;20503;-73
2022/12/18 07:30:28;;;;;;;20.27;18.27;;;-8.80;99.90;;;;;;6209722;23;20204;-71
2022/12/18 07:32:54;;;;;;;22.98;20.35;;;-8.70;99.90;;;;;;6209296;23;20188;-73
2022/12/18 07:35:21;;;;;;;21.70;19.75;;;-8.70;99.90;;;;;;6209535;23;20181;-72
2022/12/18 07:37:48;;;;;;;19.85;17.77;;;-8.60;99.90;;;;;;6209908;23;20665;-73
2022/12/18 07:40:15;;;;;;;27.27;22.15;;;-8.60;99.90;;;;;;6210893;23;20201;-74
2022/12/18 07:42:43;;;;;;;28.10;22.27;;;-8.40;99.90;;;;;;6210709;23;20187;-73
2022/12/18 07:45:10;;;;;;;29.65;22.42;;;-8.30;99.90;;;;;;6206888;23;20610;-74
2022/12/18 07:47:37;;;;;;;29.27;23.27;;;-8.20;99.90;;;;;;6209426;23;20183;-73
2022/12/18 07:50:05;;;;;;;32.35;23.95;;;-8.00;99.90;;;;;;6209462;23;20180;-73
2022/12/18 07:52:32;;;;;;;26.05;21.05;;;-7.90;99.90;;;;;;6211474;23;20509;-72
2022/12/18 07:54:59;;;;;;;29.15;21.10;;;-7.70;99.90;;;;;;6211565;23;20184;-72
2022/12/18 07:57:26;;;;;;;35.78;26.52;;;-7.60;99.90;;;;;;6211056;23;20205;-74
2022/12/18 07:59:54;;;;;;;33.90;25.73;;;-7.40;99.90;;;;;;6211900;23;20536;-73
2022/12/18 08:02:20;;;;;;;32.83;21.13;;;-7.30;99.90;;;;;;6212117;23;20177;-74
2022/12/18 08:04:47;;;;;;;33.70;25.23;;;-7.00;99.90;;;;;;6212139;23;20182;-73
2022/12/18 08:07:14;;;;;;;30.25;22.92;;;-6.90;99.90;;;;;;6211737;23;20201;-73
2022/12/18 08:09:40;;;;;;;40.35;26.25;;;-6.70;99.90;;;;;;6211147;23;20177;-73
2022/12/18 08:12:07;;;;;;;44.13;24.00;;;-6.60;99.90;;;;;;6211388;23;20180;-73
2022/12/18 08:14:34;;;;;;;22.95;20.90;;;-6.60;99.90;;;;;;6210868;23;20650;-73
2022/12/18 08:17:02;;;;;;;22.65;19.70;;;-6.50;99.90;;;;;;6211762;23;20201;-74
2022/12/18 08:19:29;;;;;;;29.52;22.40;;;-6.50;99.90;;;;;;6211098;23;20208;-72
2022/12/18 08:21:55;;;;;;;36.28;22.92;;;-6.40;99.90;;;;;;6210681;23;20205;-74
2022/12/18 08:24:23;;;;;;;25.77;20.67;;;-6.30;99.90;;;;;;6211838;23;20391;-73
2022/12/18 08:26:50;;;;;;;26.83;23.13;;;-6.20;99.90;;;;;;6210766;23;20265;-74
2022/12/18 08:29:17;;;;;;;34.10;26.95;;;-6.10;99.90;;;;;;6211316;23;20257;-73
2022/12/18 08:31:44;;;;;;;25.02;21.60;;;-5.90;99.90;;;;;;6211989;23;20177;-72
2022/12/18 08:34:12;;;;;;;31.08;24.58;;;-5.70;99.90;;;;;;6211988;23;20185;-73
2022/12/18 08:36:38;;;;;;;42.60;28.65;;;-5.80;99.90;;;;;;6211515;23;20182;-74
2022/12/18 08:39:05;;;;;;;29.73;23.08;;;-5.60;99.90;;;;;;6210236;23;20195;-74
2022/12/18 08:41:32;;;;;;;38.78;26.67;;;-5.40;99.90;;;;;;6211129;23;20508;-73
2022/12/18 08:46:44;;;;;;;36.53;25.45;;;-5.30;99.90;;;;;;6211560;23;20179;-73
2022/12/18 08:49:12;;;;;;;29.02;23.25;;;-5.20;99.90;;;;;;6210757;23;20173;-72
2022/12/18 08:51:40;;;;;;;28.85;22.98;;;-4.80;99.90;;;;;;6211221;23;20174;-72
2022/12/18 08:54:07;;;;;;;24.65;21.90;;;-4.90;99.90;;;;;;6210644;23;20276;-74
2022/12/18 08:56:34;;;;;;;32.72;27.88;;;-5.10;99.90;;;;;;6211396;23;20179;-72
2022/12/18 08:59:01;;;;;;;22.77;20.35;;;-5.00;99.90;;;;;;6211553;23;20212;-73
2022/12/18 09:01:28;;;;;;;29.35;22.90;;;-4.90;99.90;;;;;;6211900;23;20178;-73
2022/12/18 09:03:55;;;;;;;30.48;24.45;;;-4.80;99.90;;;;;;6210409;23;20179;-73
2022/12/18 09:06:24;;;;;;;29.43;23.30;;;-4.70;99.90;;;;;;6210892;23;20298;-74
2022/12/18 09:08:50;;;;;;;41.40;29.88;;;-4.40;99.90;;;;;;6210732;23;20406;-73
2022/12/18 09:11:21;;;;;;;27.13;23.43;;;-4.30;99.90;;;;;;6210934;23;20201;-74
2022/12/18 09:13:48;;;;;;;36.40;27.90;;;-3.80;99.90;;;;;;6211580;23;20427;-75
2022/12/18 09:16:15;;;;;;;26.33;23.63;;;-3.80;99.90;;;;;;6215796;23;20430;-74
2022/12/18 09:18:41;;;;;;;37.13;25.43;;;-3.70;99.90;;;;;;6213266;23;20436;-74
2022/12/18 09:21:09;;;;;;;30.90;25.77;;;-3.60;99.90;;;;;;6211307;23;20437;-73
2022/12/18 09:23:38;;;;;;;36.93;28.07;;;-3.50;99.90;;;;;;6211637;23;20669;-73
2022/12/18 09:26:05;;;;;;;34.63;28.07;;;-3.20;99.90;;;;;;6211608;23;20722;-72
2022/12/18 09:28:31;;;;;;;36.43;28.97;;;-2.80;99.90;;;;;;6211631;23;20402;-74
2022/12/18 09:30:58;;;;;;;44.13;29.97;;;-2.60;99.90;;;;;;6211162;23;20499;-73
2022/12/18 09:33:25;;;;;;;37.90;29.53;;;-2.40;99.90;;;;;;6210697;23;20409;-72
2022/12/18 09:35:52;;;;;;;41.53;29.10;;;-2.10;99.90;;;;;;6210345;23;20413;-73
2022/12/18 09:38:20;;;;;;;45.53;30.27;;;-1.80;99.90;;;;;;6210024;23;20461;-74
2022/12/18 09:40:51;;;;;;;34.27;28.87;;;-1.80;99.90;;;;;;6210173;23;20401;-73
2022/12/18 09:43:23;;;;;;;42.37;29.77;;;-2.00;99.90;;;;;;6210644;23;20395;-73
2022/12/18 09:45:55;;;;;;;36.50;28.93;;;-2.00;99.90;;;;;;6210170;23;20724;-73
2022/12/18 09:48:27;;;;;;;29.77;24.73;;;-2.00;99.90;;;;;;6210311;23;20395;-73
2022/12/18 09:50:58;;;;;;;36.80;26.20;;;-2.10;99.90;;;;;;6210298;23;20748;-74
2022/12/18 09:53:31;;;;;;;35.67;24.87;;;-2.10;99.90;;;;;;6210047;23;20853;-73
2022/12/18 09:56:00;;;;;;;40.30;29.27;;;-2.40;99.90;;;;;;6210341;23;20385;-73
2022/12/18 09:58:31;;;;;;;26.97;24.07;;;-2.40;99.90;;;;;;6208266;23;20819;-75
2022/12/18 10:00:58;;;;;;;39.17;27.87;;;-2.20;99.90;;;;;;6209681;23;20405;-73
2022/12/18 10:03:25;;;;;;;43.07;29.17;;;-2.10;99.90;;;;;;6210056;23;20404;-73
2022/12/18 10:06:02;;;;;;;33.90;27.00;;;-1.60;99.90;;;;;;6209303;23;20409;-73
2022/12/18 10:08:38;;;;;;;40.27;30.37;;;-1.60;99.90;;;;;;6210250;23;20398;-74
2022/12/18 10:11:22;;;;;;;38.93;30.03;;;-1.50;99.90;;;;;;6210175;23;20421;-75
2022/12/18 10:13:56;;;;;;;34.10;28.63;;;-1.00;99.90;;;;;;6210085;23;20399;-71
2022/12/18 10:16:30;;;;;;;40.30;29.20;;;-0.50;99.90;;;;;;6209852;23;20878;-73
2022/12/18 10:19:10;;;;;;;36.63;29.13;;;-0.40;99.80;;;;;;6210070;23;20429;-73
2022/12/18 10:21:45;;;;;;;39.97;31.17;;;-0.40;99.80;;;;;;6209809;23;20632;-73
2022/12/18 10:24:21;;;;;;;39.27;29.50;;;-0.40;98.90;;;;;;6210066;23;20399;-73
2022/12/18 10:26:49;;;;;;;36.50;26.70;;;-0.70;99.80;;;;;;6210131;23;20400;-72
2022/12/18 10:29:17;;;;;;;38.93;29.47;;;-0.70;99.90;;;;;;6209875;23;20411;-73
2022/12/18 10:31:44;;;;;;;39.00;29.07;;;-0.50;99.90;;;;;;6210139;23;20431;-72
2022/12/18 10:34:11;;;;;;;41.10;28.23;;;-0.40;99.60;;;;;;6209732;23;20422;-74
2022/12/18 10:36:38;;;;;;;38.37;30.67;;;-0.30;99.90;;;;;;6209849;23;20413;-73
2022/12/18 10:39:19;;;;;;;49.27;30.90;;;0.00;99.30;;;;;;6209787;23;20443;-73
2022/12/18 10:41:46;;;;;;;36.60;29.77;;;0.20;99.50;;;;;;6210195;23;20415;-74
2022/12/18 10:44:25;;;;;;;42.53;30.87;;;0.60;98.80;;;;;;6210466;23;20719;-74
2022/12/18 10:47:03;;;;;;;37.00;27.17;;;0.70;98.20;;;;;;6209671;23;20407;-73
2022/12/18 10:49:32;;;;;;;37.50;27.67;;;0.50;98.70;;;;;;6209983;23;20391;-74
2022/12/18 10:52:16;;;;;;;36.47;29.60;;;0.70;98.70;;;;;;6210251;23;20412;-73
2022/12/18 10:54:49;;;;;;;41.97;32.03;;;0.60;98.90;;;;;;6210213;23;20399;-74
2022/12/18 10:57:18;;;;;;;41.60;32.40;;;1.00;98.50;;;;;;6210134;23;20695;-75
2022/12/18 10:59:53;;;;;;;41.57;28.70;;;1.00;98.20;;;;;;6210229;23;20456;-73
2022/12/18 11:02:29;;;;;;;35.37;29.57;;;0.70;98.30;;;;;;6209789;23;20423;-74
2022/12/18 11:04:55;;;;;;;36.53;29.40;;;0.80;99.40;;;;;;6210004;23;20387;-73
2022/12/18 11:07:22;;;;;;;36.87;29.10;;;1.50;98.30;;;;;;6209853;23;20405;-74
2022/12/18 11:10:01;;;;;;;35.10;30.80;;;1.80;97.20;;;;;;6209736;23;20434;-73
2022/12/18 11:12:29;;;;;;;34.27;28.87;;;2.20;96.40;;;;;;6209912;23;20848;-73
2022/12/18 11:15:00;;;;;;;37.13;27.93;;;1.60;96.00;;;;;;6209463;23;20415;-74
2022/12/18 11:17:32;;;;;;;35.27;27.60;;;1.20;97.70;;;;;;6209495;23;20405;-73
2022/12/18 11:20:00;;;;;;;32.07;26.20;;;1.20;98.10;;;;;;6209519;23;20473;-73
2022/12/18 11:22:28;;;;;;;35.83;28.00;;;1.30;98.00;;;;;;6208909;23;20440;-73
2022/12/18 11:24:59;;;;;;;37.50;29.27;;;1.50;97.80;;;;;;6209501;23;20408;-72
2022/12/18 11:27:26;;;;;;;37.10;29.07;;;1.70;97.70;;;;;;6211369;23;20394;-73
2022/12/18 11:29:54;;;;;;;39.87;30.70;;;2.20;97.10;;;;;;6210946;23;21094;-73
2022/12/18 11:32:38;;;;;;;38.93;31.23;;;2.50;96.20;;;;;;6211459;23;20412;-73
2022/12/18 11:35:15;;;;;;;35.03;29.57;;;2.30;95.60;;;;;;6211662;23;20388;-73
2022/12/18 11:37:48;;;;;;;41.40;29.77;;;2.20;96.40;;;;;;6212161;23;20393;-72
2022/12/18 11:40:18;;;;;;;38.40;30.93;;;2.40;96.90;;;;;;6211714;23;20990;-73
2022/12/18 11:42:52;;;;;;;38.80;29.87;;;2.60;96.50;;;;;;6211881;23;20406;-72
2022/12/18 11:45:27;;;;;;;34.80;30.93;;;2.90;96.10;;;;;;6211560;23;20392;-72
2022/12/18 11:48:01;;;;;;;41.40;32.13;;;2.90;95.10;;;;;;6211522;23;20392;-72
2022/12/18 11:50:34;;;;;;;38.67;31.03;;;3.00;95.60;;;;;;6212177;23;20391;-73
2022/12/18 11:53:02;;;;;;;43.23;31.73;;;3.40;95.10;;;;;;6212327;23;20389;-72
2022/12/18 11:55:37;;;;;;;43.77;33.47;;;3.20;94.90;;;;;;6211830;23;20442;-71
2022/12/18 11:58:11;;;;;;;40.20;31.93;;;3.70;94.50;;;;;;6211603;23;20716;-70
2022/12/18 12:00:46;;;;;;;46.10;32.33;;;3.50;93.90;;;;;;6212026;23;20428;-72
2022/12/18 12:03:40;;;;;;;40.80;30.73;;;3.40;94.40;;;;;;6212421;23;20408;-72
2022/12/18 12:06:14;;;;;;;39.63;32.70;;;3.80;95.70;;;;;;6209380;23;20772;-73
2022/12/18 12:08:54;;;;;;;37.97;29.80;;;4.00;95.40;;;;;;6211836;23;20392;-73
2022/12/18 12:11:28;;;;;;;36.57;30.60;;;3.60;94.60;;;;;;6212978;23;20385;-73
2022/12/18 12:14:08;;;;;;;42.23;30.97;;;2.90;96.50;;;;;;6208576;23;20760;-73
2022/12/18 12:16:42;;;;;;;43.73;30.80;;;2.40;97.00;;;;;;6211676;23;20392;-72
2022/12/18 12:19:25;;;;;;;37.40;31.00;;;2.60;98.30;;;;;;6211165;23;21086;-72
2022/12/18 12:21:59;;;;;;;43.13;31.07;;;2.60;97.50;;;;;;6211204;23;20495;-73
2022/12/18 12:24:45;;;;;;;40.90;30.40;;;2.40;97.40;;;;;;6211512;23;20388;-72
2022/12/18 12:27:21;;;;;;;43.67;32.87;;;1.90;99.20;;;;;;6211671;23;20391;-73
2022/12/18 12:29:59;;;;;;;39.37;31.87;;;1.80;99.90;;;;;;6212004;23;20401;-73
2022/12/18 12:32:39;;;;;;;42.03;31.77;;;1.90;99.90;;;;;;6208047;23;20417;-73
2022/12/18 12:35:18;;;;;;;41.57;31.67;;;2.00;99.90;;;;;;6211692;23;20422;-73
2022/12/18 12:37:56;;;;;;;47.70;30.40;;;1.90;99.90;;;;;;6211982;23;20394;-72
2022/12/18 12:40:27;;;;;;;40.27;33.03;;;1.60;99.90;;;;;;6211882;23;20456;-73
2022/12/18 12:43:14;;;;;;;47.67;34.80;;;1.10;99.90;;;;;;6211696;23;20396;-73
2022/12/18 12:45:47;;;;;;;37.43;29.07;;;1.10;99.90;;;;;;6212466;23;20880;-73